Paradise, Indiana
Current Conditions -  °F | °C
As of 6:54 PM on Monday 20 Oct 2014 (Local Time) from KEVV Reporting Station
Clear Clear  
Wind Chill: 66°   Ceiling: Unl
Heat Index: 66°   Visibility: 10mi
Dew Point: 52°   Wind: 5mph
Humidity: 60%   Direction: 300°WNW
Pressure: 29.93"   Gusts: NA
Location:  37.9629°N, 87.3632°W
Report Text: KEVV 202354Z 30004KT 10SM CLR 19/11 A2993 RMK AO2 SLP134 T01890111 10222 20183 53014
Loading
Personal Weather Stations






























Interactive Weather Map
Tropical Storm Tracking
New forecast layout! Learn more

10-Day Weather Forecast

Advertisements
Track Severe Weather on mobile